createdAt,value
2019-02-26T00:04:54.077Z,3.34
2019-02-26T00:16:39.764Z,3.26
2019-02-26T00:22:18.358Z,3.20
2019-02-26T00:40:10.058Z,3.02
2019-02-26T00:52:15.565Z,3.37
2019-02-26T00:57:21.657Z,3.41
2019-02-26T01:02:24.337Z,3.39
2019-02-26T01:08:18.026Z,3.38
2019-02-26T01:14:18.597Z,3.40
2019-02-26T01:19:24.758Z,3.42
2019-02-26T01:24:30.505Z,3.37
2019-02-26T01:30:08.138Z,3.50
2019-02-26T01:59:50.160Z,3.14
2019-02-26T02:05:54.611Z,3.10
2019-02-26T02:11:40.776Z,3.03
2019-02-26T02:17:24.491Z,3.00
2019-02-26T02:22:56.029Z,3.11
2019-02-26T02:34:36.761Z,3.09
2019-02-26T02:46:16.468Z,3.12
2019-02-26T02:52:15.646Z,3.31
2019-02-26T02:57:34.483Z,3.37
2019-02-26T03:02:58.789Z,3.33
2019-02-26T03:08:35.893Z,3.34
2019-02-26T03:13:45.761Z,3.44
2019-02-26T03:19:32.003Z,3.43
2019-02-26T03:24:59.665Z,3.51
2019-02-26T03:30:44.451Z,3.61
2019-02-26T03:35:53.102Z,3.77
2019-02-26T03:40:58.935Z,3.77
2019-02-26T03:46:04.063Z,3.72
2019-02-26T03:51:10.967Z,3.74
2019-02-26T03:57:06.882Z,3.68
2019-02-26T04:08:13.126Z,3.63
2019-02-26T05:10:57.359Z,3.13
2019-02-26T06:13:31.551Z,4.46
2019-02-26T07:10:15.988Z,5.25
2019-02-26T07:29:14.393Z,5.88
2019-02-26T08:19:37.588Z,7.12
2019-02-26T08:37:51.549Z,6.61
2019-02-26T08:56:28.197Z,6.63
2019-02-26T09:40:34.220Z,7.24
2019-02-26T09:46:41.217Z,7.45
2019-02-26T10:04:08.243Z,8.25
2019-02-26T10:09:21.571Z,8.43
2019-02-26T10:15:05.864Z,8.62
2019-02-26T10:39:18.090Z,8.83
2019-02-26T11:28:45.419Z,10.08
2019-02-26T11:34:16.704Z,9.86
2019-02-26T11:51:45.410Z,9.07
2019-02-26T12:15:09.413Z,8.71
2019-02-26T13:29:17.144Z,8.50
2019-02-26T13:53:08.507Z,8.25
2019-02-26T13:58:14.392Z,8.21
2019-02-26T14:03:24.972Z,8.10
2019-02-26T14:08:30.450Z,8.06
2019-02-26T14:13:36.635Z,7.94
2019-02-26T14:18:53.047Z,7.94
2019-02-26T14:23:56.735Z,7.96
2019-02-26T14:29:15.692Z,7.95
2019-02-26T14:34:22.366Z,7.89
2019-02-26T14:39:32.276Z,7.87
2019-02-26T14:44:39.753Z,7.84
2019-02-26T14:50:22.450Z,7.84
2019-02-26T15:08:53.590Z,7.82
2019-02-26T15:14:22.567Z,7.85
2019-02-26T15:31:37.379Z,7.84
2019-02-26T15:36:43.297Z,7.86
2019-02-26T15:42:10.347Z,7.82
2019-02-26T16:00:17.564Z,7.81
2019-02-26T16:06:22.258Z,7.75
2019-02-26T16:11:57.430Z,7.80
2019-02-26T16:23:20.100Z,7.81
2019-02-26T16:28:51.776Z,7.72
2019-02-26T16:34:26.650Z,7.73
2019-02-26T16:39:32.504Z,7.69
2019-02-26T16:44:58.338Z,7.66
2019-02-26T16:50:32.789Z,7.52
2019-02-26T16:56:26.686Z,7.50
2019-02-26T17:02:11.338Z,7.44
2019-02-26T17:20:32.205Z,7.20
2019-02-26T17:26:17.481Z,7.12
2019-02-26T17:55:23.401Z,7.05
2019-02-26T18:00:39.722Z,7.14
2019-02-26T18:05:55.079Z,6.92
2019-02-26T18:11:05.294Z,6.75
2019-02-26T18:16:34.386Z,6.66
2019-02-26T18:28:16.874Z,6.48
2019-02-26T18:33:59.201Z,6.44
2019-02-26T18:39:03.112Z,6.39
2019-02-26T18:55:32.354Z,6.49
2019-02-26T19:00:35.046Z,6.49
2019-02-26T19:05:39.773Z,6.49
2019-02-26T19:10:54.176Z,6.24
2019-02-26T19:16:12.786Z,6.23
2019-02-26T19:21:30.175Z,6.05
2019-02-26T19:26:57.433Z,5.89
2019-02-26T19:32:25.911Z,5.80
2019-02-26T19:37:38.126Z,5.64
2019-02-26T19:42:43.217Z,5.56
2019-02-26T19:48:02.993Z,5.58
2019-02-26T19:53:19.826Z,5.59
2019-02-26T19:58:33.454Z,5.62
2019-02-26T20:04:01.777Z,5.71
2019-02-26T20:09:22.559Z,5.72
2019-02-26T20:14:34.686Z,5.75
2019-02-26T20:20:07.348Z,5.61
2019-02-26T20:25:57.005Z,5.62
2019-02-26T20:31:11.971Z,5.62
2019-02-26T20:36:24.245Z,5.55
2019-02-26T20:41:44.313Z,5.58
2019-02-26T20:46:51.450Z,5.41
2019-02-26T20:52:06.528Z,5.43
2019-02-26T20:57:28.871Z,5.50
2019-02-26T21:02:41.841Z,5.52
2019-02-26T21:07:49.680Z,5.52
2019-02-26T21:13:03.285Z,5.48
2019-02-26T21:18:08.298Z,5.46
2019-02-26T21:23:12.227Z,5.52
2019-02-26T21:28:27.661Z,5.53
2019-02-26T21:33:37.733Z,5.45
2019-02-26T21:38:42.583Z,5.43
2019-02-26T21:43:50.743Z,5.34
2019-02-26T21:48:55.342Z,5.35
2019-02-26T21:54:40.284Z,5.37
2019-02-26T21:59:49.970Z,5.27
2019-02-26T22:04:49.547Z,5.24
2019-02-26T22:09:53.362Z,5.17
2019-02-26T22:15:04.179Z,5.04
2019-02-26T22:20:26.908Z,4.78
2019-02-26T22:25:36.716Z,4.79
2019-02-26T22:30:40.816Z,5.00
2019-02-26T22:35:52.685Z,4.90
2019-02-26T22:40:59.939Z,4.73
2019-02-26T22:46:16.791Z,4.66
2019-02-26T22:52:00.215Z,4.54
2019-02-26T22:57:07.015Z,4.62
2019-02-26T23:02:13.469Z,4.81
2019-02-26T23:13:21.992Z,5.06
2019-02-26T23:18:35.825Z,5.17
2019-02-26T23:23:39.748Z,5.12
2019-02-26T23:28:44.444Z,5.12
2019-02-26T23:33:49.159Z,5.07
2019-02-26T23:38:54.412Z,5.02
2019-02-26T23:44:01.038Z,4.96
2019-02-26T23:49:05.233Z,4.90
2019-02-26T23:54:09.636Z,4.89
2019-02-26T23:59:20.743Z,4.84
